createdAt,value
2022-08-23T00:01:34.544Z,5.15
2022-08-23T00:04:05.173Z,4.30
2022-08-23T00:06:32.610Z,6.40
2022-08-23T00:08:59.303Z,7.63
2022-08-23T00:11:27.869Z,5.88
2022-08-23T00:13:54.950Z,5.00
2022-08-23T00:16:21.382Z,4.75
2022-08-23T00:18:49.420Z,4.22
2022-08-23T00:21:16.482Z,7.63
2022-08-23T00:23:42.928Z,4.85
2022-08-23T00:26:09.652Z,4.35
2022-08-23T00:28:36.081Z,7.40
2022-08-23T00:31:03.549Z,5.65
2022-08-23T00:33:29.966Z,5.72
2022-08-23T00:35:56.367Z,8.25
2022-08-23T00:38:32.470Z,9.00
2022-08-23T00:41:01.529Z,9.07
2022-08-23T00:43:52.879Z,8.15
2022-08-23T00:47:01.657Z,8.50
2022-08-23T00:49:31.223Z,7.53
2022-08-23T00:52:08.764Z,5.45
2022-08-23T00:54:37.689Z,4.80
2022-08-23T00:57:09.249Z,5.15
2022-08-23T00:59:35.652Z,4.05
2022-08-23T01:02:03.497Z,5.78
2022-08-23T01:04:34.311Z,5.88
2022-08-23T01:07:12.825Z,5.22
2022-08-23T01:09:42.083Z,5.18
2022-08-23T01:12:32.247Z,2.92
2022-08-23T01:15:06.819Z,5.03
2022-08-23T01:17:47.581Z,3.50
2022-08-23T01:20:18.355Z,7.95
2022-08-23T01:23:02.215Z,6.85
2022-08-23T01:25:31.771Z,9.93
2022-08-23T01:27:59.396Z,6.10
2022-08-23T01:30:29.580Z,5.47
2022-08-23T01:32:58.500Z,7.03
2022-08-23T01:35:35.048Z,8.45
2022-08-23T01:38:02.462Z,5.38
2022-08-23T01:40:29.563Z,4.97
2022-08-23T01:42:56.026Z,5.50
2022-08-23T01:45:22.524Z,8.55
2022-08-23T01:47:48.910Z,6.20
2022-08-23T01:50:15.341Z,5.35
2022-08-23T01:52:47.041Z,6.57
2022-08-23T01:55:14.471Z,9.60
2022-08-23T01:57:43.060Z,5.15
2022-08-23T02:00:13.632Z,4.28
2022-08-23T02:02:41.297Z,7.30
2022-08-23T02:05:09.090Z,7.78
2022-08-23T02:07:35.940Z,8.68
2022-08-23T02:10:02.800Z,8.70
2022-08-23T02:12:29.875Z,8.77
2022-08-23T02:14:56.678Z,8.18
2022-08-23T02:17:23.070Z,7.22
2022-08-23T02:19:49.471Z,8.52
2022-08-23T02:22:15.928Z,6.95
2022-08-23T02:24:45.216Z,6.75
2022-08-23T02:27:15.291Z,6.40
2022-08-23T02:29:44.962Z,6.30
2022-08-23T02:32:14.541Z,7.45
2022-08-23T02:34:42.498Z,6.53
2022-08-23T02:37:11.089Z,7.28
2022-08-23T02:39:40.002Z,7.65
2022-08-23T02:42:07.682Z,6.15
2022-08-23T02:44:35.542Z,10.00
2022-08-23T02:47:02.328Z,6.05
2022-08-23T02:49:29.816Z,5.90
2022-08-23T02:51:57.099Z,7.95
2022-08-23T02:54:23.568Z,6.22
2022-08-23T02:56:49.949Z,6.00
2022-08-23T02:59:16.353Z,6.38
2022-08-23T03:01:42.820Z,4.72
2022-08-23T03:04:10.546Z,9.95
2022-08-23T03:06:38.428Z,5.18
2022-08-23T03:09:06.366Z,5.05
2022-08-23T03:11:33.734Z,6.38
2022-08-23T03:14:01.237Z,5.30
2022-08-23T03:16:28.317Z,5.90
2022-08-23T03:18:55.281Z,5.85
2022-08-23T03:21:22.280Z,5.55
2022-08-23T03:23:48.675Z,6.75
2022-08-23T03:26:15.885Z,9.05
2022-08-23T03:28:43.838Z,5.80
2022-08-23T03:31:10.428Z,5.68
2022-08-23T03:33:38.194Z,5.07
2022-08-23T03:36:07.404Z,5.40
2022-08-23T03:38:34.824Z,4.47
2022-08-23T03:41:01.930Z,6.82
2022-08-23T03:43:28.772Z,8.30
2022-08-23T03:45:55.216Z,6.57
2022-08-23T03:48:21.781Z,5.05
2022-08-23T03:50:48.280Z,5.95
2022-08-23T03:53:14.897Z,5.68
2022-08-23T03:55:43.007Z,11.75
2022-08-23T03:58:11.141Z,6.43
2022-08-23T04:00:38.504Z,5.65
2022-08-23T04:03:04.983Z,6.93
2022-08-23T04:05:31.423Z,6.10
2022-08-23T04:07:57.922Z,5.05
2022-08-23T04:10:24.538Z,5.30
2022-08-23T04:12:52.545Z,8.27
2022-08-23T04:15:19.640Z,7.70
2022-08-23T04:17:46.005Z,7.63
2022-08-23T04:20:12.408Z,10.77
2022-08-23T04:22:38.821Z,7.07
2022-08-23T04:25:10.142Z,8.13
2022-08-23T04:27:52.119Z,8.27
2022-08-23T04:30:20.040Z,12.75
2022-08-23T04:32:47.672Z,7.25
2022-08-23T04:35:15.066Z,5.30
2022-08-23T04:37:42.116Z,6.30
2022-08-23T04:40:28.308Z,6.80
2022-08-23T04:42:54.874Z,6.70
2022-08-23T04:45:21.373Z,7.80
2022-08-23T04:47:47.850Z,12.52
2022-08-23T04:50:14.288Z,7.13
2022-08-23T04:52:40.700Z,5.93
2022-08-23T04:55:07.507Z,8.57
2022-08-23T04:57:34.043Z,7.05
2022-08-23T05:00:00.866Z,5.55
2022-08-23T05:02:27.821Z,5.88
2022-08-23T05:04:54.278Z,6.97
2022-08-23T05:07:21.445Z,5.43
2022-08-23T05:10:12.748Z,7.45
2022-08-23T05:12:39.576Z,7.68
2022-08-23T05:15:07.122Z,5.75
2022-08-23T05:17:33.519Z,7.15
2022-08-23T05:19:59.927Z,5.25
2022-08-23T05:22:26.447Z,7.60
2022-08-23T05:24:52.823Z,5.78
2022-08-23T05:27:19.244Z,6.90
2022-08-23T05:29:47.187Z,8.82
2022-08-23T05:32:13.566Z,8.25
2022-08-23T05:34:40.177Z,11.05
2022-08-23T05:37:06.596Z,6.40
2022-08-23T05:39:36.459Z,9.05
2022-08-23T05:42:05.083Z,7.43
2022-08-23T05:44:31.931Z,9.20
2022-08-23T05:47:10.342Z,6.88
2022-08-23T05:49:38.432Z,6.47
2022-08-23T05:52:06.845Z,5.47
2022-08-23T05:54:33.704Z,9.43
2022-08-23T05:57:00.357Z,10.25
2022-08-23T05:59:26.812Z,32.72
2022-08-23T06:01:53.460Z,8.98
2022-08-23T06:04:20.040Z,11.02
2022-08-23T06:06:46.482Z,6.05
2022-08-23T06:09:15.197Z,6.43
2022-08-23T06:11:44.420Z,9.32
2022-08-23T06:14:11.586Z,8.70
2022-08-23T06:16:42.061Z,11.23
2022-08-23T06:19:09.372Z,7.40
2022-08-23T06:21:36.952Z,8.15
2022-08-23T06:24:03.704Z,9.98
2022-08-23T06:26:39.497Z,8.25
2022-08-23T06:29:10.936Z,5.80
2022-08-23T06:31:46.958Z,6.95
2022-08-23T06:34:22.272Z,7.30
2022-08-23T06:36:52.352Z,7.45
2022-08-23T06:39:20.851Z,7.90
2022-08-23T06:41:50.261Z,6.38
2022-08-23T06:44:18.428Z,6.68
2022-08-23T06:46:45.543Z,6.22
2022-08-23T06:49:12.737Z,13.30
2022-08-23T06:51:45.284Z,8.40
2022-08-23T06:54:14.589Z,9.57
2022-08-23T06:56:42.594Z,7.35
2022-08-23T06:59:10.466Z,7.10
2022-08-23T07:01:45.523Z,9.75
2022-08-23T07:04:16.324Z,8.02
2022-08-23T07:06:42.775Z,6.70
2022-08-23T07:09:09.240Z,10.20
2022-08-23T07:11:36.242Z,5.95
2022-08-23T07:14:05.274Z,6.35
2022-08-23T07:16:48.357Z,3.92
2022-08-23T07:19:17.145Z,5.68
2022-08-23T07:21:44.557Z,7.72
2022-08-23T07:24:15.829Z,5.70
2022-08-23T07:26:43.410Z,3.60
2022-08-23T07:29:11.358Z,7.32
2022-08-23T07:31:47.483Z,5.45
2022-08-23T07:34:15.507Z,5.32
2022-08-23T07:36:44.021Z,5.10
2022-08-23T07:39:11.785Z,3.08
2022-08-23T07:41:39.094Z,5.93
2022-08-23T07:44:08.673Z,3.70
2022-08-23T07:46:37.426Z,3.55
2022-08-23T07:49:04.709Z,4.03
2022-08-23T07:51:33.116Z,2.25
2022-08-23T07:54:02.524Z,1.55
2022-08-23T07:56:29.311Z,4.47
2022-08-23T07:58:56.038Z,2.42
2022-08-23T08:01:26.156Z,1.52
2022-08-23T08:03:55.897Z,2.88
2022-08-23T08:06:31.264Z,1.92
2022-08-23T08:08:58.910Z,2.30
2022-08-23T08:11:30.899Z,2.33
2022-08-23T08:14:03.452Z,1.20
2022-08-23T08:16:33.277Z,2.28
2022-08-23T08:19:02.356Z,1.20
2022-08-23T08:21:29.073Z,2.83
2022-08-23T08:23:57.578Z,3.60
2022-08-23T08:26:25.006Z,2.63
2022-08-23T08:28:52.356Z,4.25
2022-08-23T08:31:18.842Z,2.35
2022-08-23T08:33:45.272Z,1.42
2022-08-23T08:36:28.081Z,3.50
2022-08-23T08:38:58.724Z,1.83
2022-08-23T08:42:04.244Z,2.35
2022-08-23T08:44:42.025Z,1.88
2022-08-23T08:47:34.352Z,1.00
2022-08-23T08:50:14.743Z,2.25
2022-08-23T08:53:14.509Z,1.70
2022-08-23T08:55:51.647Z,0.80
2022-08-23T08:58:36.571Z,0.80
2022-08-23T09:01:03.057Z,0.70
2022-08-23T09:03:33.032Z,2.83
2022-08-23T09:06:21.757Z,1.38
2022-08-23T09:08:59.352Z,0.32
2022-08-23T09:11:56.705Z,4.60
2022-08-23T09:14:23.035Z,1.10
2022-08-23T09:16:54.188Z,1.25
2022-08-23T09:19:25.069Z,1.90
2022-08-23T09:22:05.459Z,1.15
2022-08-23T09:24:31.890Z,0.65
2022-08-23T09:26:58.825Z,2.92
2022-08-23T09:29:28.987Z,1.58
2022-08-23T09:32:02.025Z,1.48
2022-08-23T09:34:37.534Z,2.00
2022-08-23T09:37:13.164Z,0.75
2022-08-23T09:39:43.238Z,1.65
2022-08-23T09:42:31.743Z,0.70
2022-08-23T09:44:58.282Z,0.70
2022-08-23T09:47:38.454Z,2.92
2022-08-23T09:50:39.004Z,4.18
2022-08-23T09:53:12.644Z,0.85
2022-08-23T09:55:41.910Z,1.10
2022-08-23T09:58:53.795Z,0.43
2022-08-23T10:01:25.792Z,1.15
2022-08-23T10:04:10.326Z,0.65
2022-08-23T10:06:37.642Z,0.85
2022-08-23T10:09:07.067Z,1.02
2022-08-23T10:11:40.659Z,0.55
2022-08-23T10:14:07.127Z,0.90
2022-08-23T10:17:11.113Z,1.50
2022-08-23T10:19:48.154Z,0.88
2022-08-23T10:22:23.853Z,1.33
2022-08-23T10:25:18.731Z,0.77
2022-08-23T10:28:22.952Z,2.10
2022-08-23T10:31:21.784Z,1.08
2022-08-23T10:34:16.004Z,0.95
2022-08-23T10:37:08.327Z,4.18
2022-08-23T10:39:45.508Z,2.88
2022-08-23T10:42:22.768Z,1.20
2022-08-23T10:45:03.892Z,0.90
2022-08-23T10:47:42.116Z,3.20
2022-08-23T10:50:13.428Z,3.67
2022-08-23T10:53:07.930Z,1.33
2022-08-23T10:58:25.532Z,1.05
2022-08-23T11:00:54.258Z,2.00
2022-08-23T11:03:33.340Z,1.25
2022-08-23T11:06:24.598Z,0.73
2022-08-23T11:09:09.753Z,0.52
2022-08-23T11:11:48.238Z,0.68
2022-08-23T11:14:45.137Z,0.45
2022-08-23T11:17:26.724Z,0.68
2022-08-23T11:19:56.593Z,0.65
2022-08-23T11:22:25.138Z,0.98
2022-08-23T11:25:03.296Z,0.50
2022-08-23T11:27:36.792Z,0.75
2022-08-23T11:30:32.330Z,1.30
2022-08-23T11:33:03.094Z,1.10
2022-08-23T11:35:44.454Z,0.90
2022-08-23T11:38:12.365Z,1.02
2022-08-23T11:40:41.018Z,0.47
2022-08-23T11:43:26.861Z,0.90
2022-08-23T11:45:53.556Z,0.15
2022-08-23T11:48:35.115Z,1.23
2022-08-23T11:51:12.598Z,0.57
2022-08-23T11:53:54.296Z,0.95
2022-08-23T11:56:52.333Z,0.90
2022-08-23T11:59:30.057Z,0.65
2022-08-23T12:01:59.292Z,0.63
2022-08-23T12:04:49.647Z,0.68
2022-08-23T12:07:53.224Z,0.60
2022-08-23T12:10:37.820Z,0.93
2022-08-23T12:13:19.594Z,1.52
2022-08-23T12:16:21.617Z,0.82
2022-08-23T12:18:53.950Z,0.75
2022-08-23T12:21:39.949Z,0.82
2022-08-23T12:24:29.415Z,1.02
2022-08-23T12:27:04.673Z,0.63
2022-08-23T12:29:45.261Z,0.63
2022-08-23T12:32:19.681Z,1.02
2022-08-23T12:34:57.637Z,0.70
2022-08-23T12:37:41.820Z,0.60
2022-08-23T12:40:13.952Z,1.58
2022-08-23T12:42:41.395Z,1.27
2022-08-23T12:45:21.438Z,2.15
2022-08-23T12:47:59.424Z,0.95
2022-08-23T12:50:34.912Z,1.85
2022-08-23T12:53:06.004Z,1.52
2022-08-23T12:55:37.163Z,0.63
2022-08-23T12:58:04.919Z,1.20
2022-08-23T13:00:36.455Z,0.90
2022-08-23T13:03:14.255Z,1.15
2022-08-23T13:05:45.898Z,1.23
2022-08-23T13:08:34.152Z,2.88
2022-08-23T13:11:07.472Z,2.42
2022-08-23T13:13:37.769Z,1.52
2022-08-23T13:16:26.878Z,1.45
2022-08-23T13:18:56.060Z,2.97
2022-08-23T13:21:22.521Z,2.38
2022-08-23T13:23:54.312Z,2.17
2022-08-23T13:26:36.848Z,1.75
2022-08-23T13:29:15.753Z,0.95
2022-08-23T13:32:05.883Z,1.42
2022-08-23T13:34:38.888Z,0.47
2022-08-23T13:37:29.294Z,1.73
2022-08-23T13:40:05.940Z,3.08
2022-08-23T13:42:48.494Z,1.65
2022-08-23T13:45:27.572Z,1.33
2022-08-23T13:48:02.509Z,3.03
2022-08-23T13:50:32.143Z,1.52
2022-08-23T13:53:15.676Z,2.28
2022-08-23T13:55:58.424Z,1.85
2022-08-23T13:58:31.336Z,1.88
2022-08-23T14:01:00.653Z,3.03
2022-08-23T14:03:31.328Z,2.83
2022-08-23T14:05:57.792Z,2.38
2022-08-23T14:08:24.414Z,2.63
2022-08-23T14:10:51.265Z,3.25
2022-08-23T14:13:19.621Z,1.15
2022-08-23T14:18:34.096Z,1.83
2022-08-23T14:21:03.479Z,1.25
2022-08-23T14:23:30.037Z,3.05
2022-08-23T14:25:56.661Z,2.30
2022-08-23T14:28:27.188Z,2.42
2022-08-23T14:30:56.856Z,1.73
2022-08-23T14:33:23.389Z,3.33
2022-08-23T14:35:50.043Z,2.70
2022-08-23T14:38:17.848Z,2.70
2022-08-23T14:40:52.027Z,3.25
2022-08-23T14:43:18.730Z,2.20
2022-08-23T14:45:45.179Z,5.00
2022-08-23T14:48:11.603Z,2.58
2022-08-23T14:50:39.641Z,3.35
2022-08-23T14:53:06.705Z,3.22
2022-08-23T14:55:33.198Z,5.40
2022-08-23T14:58:00.036Z,1.55
2022-08-23T15:00:26.684Z,4.32
2022-08-23T15:02:53.424Z,3.05
2022-08-23T15:05:19.885Z,3.03
2022-08-23T15:07:46.317Z,4.78
2022-08-23T15:10:49.757Z,1.75
2022-08-23T15:13:15.646Z,2.67
2022-08-23T15:15:47.393Z,2.47
2022-08-23T15:18:16.512Z,1.90
2022-08-23T15:20:43.023Z,2.50
2022-08-23T15:23:09.648Z,4.03
2022-08-23T15:25:40.291Z,4.30
2022-08-23T15:28:13.033Z,5.15
2022-08-23T15:30:40.702Z,2.72
2022-08-23T15:33:07.330Z,3.78
2022-08-23T15:35:41.509Z,2.50
2022-08-23T15:38:09.554Z,8.90
2022-08-23T15:40:36.224Z,3.42
2022-08-23T15:43:03.541Z,3.92
2022-08-23T15:45:32.087Z,5.22
2022-08-23T15:48:01.053Z,2.90
2022-08-23T15:50:31.083Z,3.58
2022-08-23T15:52:58.073Z,4.18
2022-08-23T15:55:29.066Z,2.25
2022-08-23T15:57:58.057Z,1.65
2022-08-23T16:00:25.320Z,3.60
2022-08-23T16:03:20.614Z,2.72
2022-08-23T16:05:42.600Z,2.22
2022-08-23T16:08:16.150Z,4.85
2022-08-23T16:10:42.656Z,2.38
2022-08-23T16:13:09.341Z,3.30
2022-08-23T16:15:38.536Z,1.67
2022-08-23T16:18:05.140Z,4.95
2022-08-23T16:20:31.624Z,1.92
2022-08-23T16:22:58.033Z,2.30
2022-08-23T16:25:24.569Z,2.22
2022-08-23T16:27:51.092Z,1.63
2022-08-23T16:30:17.663Z,2.33
2022-08-23T16:32:44.161Z,2.45
2022-08-23T16:35:10.835Z,3.25
2022-08-23T16:37:37.304Z,2.95
2022-08-23T16:40:07.452Z,2.20
2022-08-23T16:42:34.246Z,2.33
2022-08-23T16:45:00.687Z,2.78
2022-08-23T16:47:27.181Z,2.60
2022-08-23T16:49:53.985Z,1.88
2022-08-23T16:52:20.714Z,1.90
2022-08-23T16:54:58.410Z,1.60
2022-08-23T16:57:24.838Z,2.30
2022-08-23T16:59:51.519Z,1.27
2022-08-23T17:02:27.580Z,1.40
2022-08-23T17:04:55.067Z,2.75
2022-08-23T17:07:21.712Z,2.35
2022-08-23T17:09:48.328Z,0.93
2022-08-23T17:12:16.599Z,2.00
2022-08-23T17:14:45.268Z,2.83
2022-08-23T17:17:13.031Z,1.65
2022-08-23T17:19:39.774Z,1.48
2022-08-23T17:22:06.457Z,1.10
2022-08-23T17:24:33.164Z,1.52
2022-08-23T17:26:59.797Z,1.20
2022-08-23T17:29:27.516Z,0.80
2022-08-23T17:31:57.747Z,1.15
2022-08-23T17:34:24.218Z,0.77
2022-08-23T17:36:52.793Z,0.82
2022-08-23T17:39:22.879Z,1.30
2022-08-23T17:41:49.399Z,0.90
2022-08-23T17:44:16.282Z,0.68
2022-08-23T17:46:45.248Z,0.75
2022-08-23T17:49:12.677Z,2.40
2022-08-23T17:51:41.067Z,1.17
2022-08-23T17:54:08.852Z,2.20
2022-08-23T17:56:35.528Z,1.10
2022-08-23T17:59:01.942Z,1.67
2022-08-23T18:01:29.070Z,1.23
2022-08-23T18:03:55.619Z,0.70
2022-08-23T18:06:22.228Z,0.85
2022-08-23T18:08:48.898Z,1.27
2022-08-23T18:11:16.273Z,2.08
2022-08-23T18:13:42.930Z,1.17
2022-08-23T18:16:09.440Z,1.35
2022-08-23T18:18:35.938Z,1.30
2022-08-23T18:21:09.556Z,1.90
2022-08-23T18:23:36.023Z,1.15
2022-08-23T18:26:08.476Z,0.98
2022-08-23T18:28:35.143Z,0.88
2022-08-23T18:31:03.663Z,1.48
2022-08-23T18:33:31.918Z,1.63
2022-08-23T18:36:13.136Z,1.10
2022-08-23T18:38:39.514Z,1.05
2022-08-23T18:41:05.985Z,0.65
2022-08-23T18:43:37.499Z,1.77
2022-08-23T18:46:05.002Z,0.63
2022-08-23T18:48:31.899Z,1.67
2022-08-23T18:50:58.902Z,1.60
2022-08-23T18:53:26.205Z,1.05
2022-08-23T18:55:54.100Z,1.17
2022-08-23T18:58:21.472Z,1.27
2022-08-23T19:00:49.586Z,1.55
2022-08-23T19:03:17.719Z,1.13
2022-08-23T19:05:45.238Z,1.92
2022-08-23T19:08:12.853Z,2.10
2022-08-23T19:10:40.866Z,1.08
2022-08-23T19:13:08.906Z,1.52
2022-08-23T19:15:36.806Z,1.92
2022-08-23T19:18:04.185Z,1.30
2022-08-23T19:20:30.648Z,1.50
2022-08-23T19:22:57.513Z,1.42
2022-08-23T19:25:24.990Z,1.60
2022-08-23T19:27:52.106Z,1.25
2022-08-23T19:30:18.796Z,1.17
2022-08-23T19:32:45.199Z,3.58
2022-08-23T19:35:12.925Z,1.77
2022-08-23T19:37:39.401Z,3.25
2022-08-23T19:40:07.139Z,2.28
2022-08-23T19:42:36.875Z,2.60
2022-08-23T19:45:07.596Z,3.13
2022-08-23T19:47:34.717Z,2.15
2022-08-23T19:50:03.998Z,2.90
2022-08-23T19:52:31.435Z,2.70
2022-08-23T19:55:03.018Z,2.28
2022-08-23T19:57:32.744Z,2.55
2022-08-23T20:00:00.978Z,1.83
2022-08-23T20:02:28.073Z,2.80
2022-08-23T20:04:54.520Z,2.65
2022-08-23T20:07:21.158Z,3.13
2022-08-23T20:09:47.555Z,4.10
2022-08-23T20:12:15.544Z,3.40
2022-08-23T20:14:42.173Z,2.70
2022-08-23T20:17:08.769Z,2.70
2022-08-23T20:19:36.149Z,1.98
2022-08-23T20:22:23.117Z,3.22
2022-08-23T20:24:51.999Z,2.30
2022-08-23T20:27:29.050Z,3.08
2022-08-23T20:29:59.033Z,2.45
2022-08-23T20:32:26.269Z,2.53
2022-08-23T20:34:52.666Z,4.85
2022-08-23T20:37:19.431Z,2.28
2022-08-23T20:39:45.962Z,2.75
2022-08-23T20:42:12.485Z,2.65
2022-08-23T20:44:38.958Z,5.35
2022-08-23T20:47:05.450Z,6.80
2022-08-23T20:49:31.979Z,5.75
2022-08-23T20:51:58.368Z,6.40
2022-08-23T20:54:24.765Z,5.68
2022-08-23T20:56:52.396Z,4.75
2022-08-23T20:59:19.357Z,6.00
2022-08-23T21:01:45.974Z,4.72
2022-08-23T21:04:12.640Z,4.60
2022-08-23T21:06:45.936Z,4.20
2022-08-23T21:09:16.873Z,5.40
2022-08-23T21:11:43.754Z,5.22
2022-08-23T21:14:10.133Z,4.30
2022-08-23T21:16:36.633Z,3.47
2022-08-23T21:19:03.596Z,4.80
2022-08-23T21:21:30.296Z,4.47
2022-08-23T21:23:56.963Z,4.63
2022-08-23T21:26:24.186Z,4.07
2022-08-23T21:28:51.963Z,3.75
2022-08-23T21:31:21.631Z,3.97
2022-08-23T21:33:48.803Z,5.10
2022-08-23T21:36:17.691Z,4.30
2022-08-23T21:38:45.379Z,6.22
2022-08-23T21:41:36.954Z,7.97
2022-08-23T21:44:06.794Z,5.55
2022-08-23T21:46:33.486Z,7.63
2022-08-23T21:49:00.431Z,4.05
2022-08-23T21:51:26.892Z,4.22
2022-08-23T21:53:53.437Z,6.53
2022-08-23T21:56:20.452Z,3.03
2022-08-23T21:58:47.383Z,3.97
2022-08-23T22:01:17.436Z,5.65
2022-08-23T22:03:43.925Z,4.25
2022-08-23T22:06:15.536Z,3.40
2022-08-23T22:08:43.684Z,4.82
2022-08-23T22:11:11.203Z,4.93
2022-08-23T22:13:38.698Z,4.63
2022-08-23T22:16:05.621Z,3.88
2022-08-23T22:18:33.787Z,5.50
2022-08-23T22:21:01.679Z,4.78
2022-08-23T22:23:30.061Z,6.13
2022-08-23T22:25:59.701Z,4.47
2022-08-23T22:28:27.346Z,4.57
2022-08-23T22:30:59.381Z,4.80
2022-08-23T22:33:26.412Z,3.95
2022-08-23T22:35:53.075Z,7.47
2022-08-23T22:38:19.860Z,4.25
2022-08-23T22:40:51.178Z,3.40
2022-08-23T22:43:18.819Z,4.18
2022-08-23T22:45:58.506Z,3.40
2022-08-23T22:48:29.018Z,3.67
2022-08-23T22:51:09.301Z,3.80
2022-08-23T22:53:37.354Z,4.72
2022-08-23T22:56:04.833Z,3.95
2022-08-23T22:58:31.356Z,4.22
2022-08-23T23:00:58.032Z,4.25
2022-08-23T23:03:24.565Z,4.13
2022-08-23T23:05:51.326Z,6.30
2022-08-23T23:08:29.922Z,3.40
2022-08-23T23:11:02.769Z,3.75
2022-08-23T23:13:31.422Z,4.47
2022-08-23T23:15:59.493Z,3.60
2022-08-23T23:18:26.515Z,5.47
2022-08-23T23:20:57.858Z,3.97
2022-08-23T23:23:24.908Z,5.57
2022-08-23T23:25:51.443Z,4.45
2022-08-23T23:28:20.006Z,4.18
2022-08-23T23:30:48.551Z,5.78
2022-08-23T23:33:15.214Z,5.28
2022-08-23T23:35:41.866Z,5.35
2022-08-23T23:38:10.237Z,3.38
2022-08-23T23:40:37.873Z,4.95
2022-08-23T23:43:04.698Z,4.38
2022-08-23T23:45:31.220Z,5.80
2022-08-23T23:47:57.917Z,4.47
2022-08-23T23:50:25.407Z,4.95
2022-08-23T23:52:51.847Z,6.53
2022-08-23T23:55:21.269Z,5.22
2022-08-23T23:57:47.668Z,4.53
